createdAt,value
2022-08-18T00:01:10.783Z,100936.06
2022-08-18T00:03:54.132Z,100940.78
2022-08-18T00:06:24.617Z,100935.28
2022-08-18T00:08:55.876Z,100925.78
2022-08-18T00:11:23.821Z,100938.41
2022-08-18T00:13:50.556Z,100933.28
2022-08-18T00:16:17.232Z,100934.47
2022-08-18T00:18:44.041Z,100931.31
2022-08-18T00:21:10.720Z,100937.63
2022-08-18T00:23:38.787Z,100940.78
2022-08-18T00:26:05.869Z,100949.44
2022-08-18T00:28:32.535Z,100952.22
2022-08-18T00:30:59.282Z,100945.13
2022-08-18T00:33:26.419Z,100944.78
2022-08-18T00:35:53.396Z,100934.88
2022-08-18T00:38:24.755Z,100940.38
2022-08-18T00:40:54.431Z,100938.44
2022-08-18T00:43:46.086Z,100942.38
2022-08-18T00:46:19.410Z,100940.00
2022-08-18T00:48:48.429Z,100931.72
2022-08-18T00:51:31.671Z,100934.09
2022-08-18T00:54:03.900Z,100943.56
2022-08-18T00:56:36.094Z,100940.03
2022-08-18T00:59:17.187Z,100936.84
2022-08-18T01:01:47.946Z,100937.66
2022-08-18T01:04:18.672Z,100936.88
2022-08-18T01:06:49.208Z,100924.25
2022-08-18T01:09:17.910Z,100932.91
2022-08-18T01:11:45.081Z,100936.84
2022-08-18T01:14:15.931Z,100943.16
2022-08-18T01:17:01.741Z,100949.09
2022-08-18T01:19:47.421Z,100956.97
2022-08-18T01:22:37.783Z,100952.63
2022-08-18T01:25:26.370Z,100951.44
2022-08-18T01:27:57.130Z,100948.69
2022-08-18T01:30:28.233Z,100963.69
2022-08-18T01:32:55.193Z,100973.56
2022-08-18T01:35:23.806Z,100957.41
2022-08-18T01:37:50.733Z,100964.09
2022-08-18T01:41:01.090Z,100969.63
2022-08-18T01:43:05.697Z,100967.25
2022-08-18T01:45:33.548Z,100962.50
2022-08-18T01:48:00.833Z,100963.31
2022-08-18T01:50:28.031Z,100957.38
2022-08-18T01:52:54.766Z,100967.66
2022-08-18T01:55:21.889Z,100961.31
2022-08-18T01:57:48.631Z,100959.31
2022-08-18T02:00:18.036Z,100950.66
2022-08-18T02:02:45.269Z,100962.47
2022-08-18T02:05:18.343Z,100957.00
2022-08-18T02:07:45.195Z,100959.75
2022-08-18T02:10:16.280Z,100952.25
2022-08-18T02:12:43.771Z,100961.72
2022-08-18T02:15:10.938Z,100963.31
2022-08-18T02:17:39.514Z,100953.81
2022-08-18T02:20:08.186Z,100960.94
2022-08-18T02:22:34.952Z,100949.09
2022-08-18T02:25:01.692Z,100942.78
2022-08-18T02:27:28.885Z,100956.97
2022-08-18T02:29:55.606Z,100955.00
2022-08-18T02:32:22.297Z,100956.19
2022-08-18T02:34:51.097Z,100953.44
2022-08-18T02:37:17.863Z,100953.03
2022-08-18T02:39:44.923Z,100957.75
2022-08-18T02:42:14.840Z,100959.34
2022-08-18T02:44:41.804Z,100963.66
2022-08-18T02:47:08.844Z,100973.16
2022-08-18T02:49:36.880Z,100964.47
2022-08-18T02:52:04.286Z,100968.41
2022-08-18T02:54:31.267Z,100958.94
2022-08-18T02:56:57.990Z,100962.50
2022-08-18T02:59:27.535Z,100969.25
2022-08-18T03:01:56.421Z,100970.03
2022-08-18T03:04:29.630Z,100960.13
2022-08-18T03:07:00.318Z,100961.31
2022-08-18T03:09:27.780Z,100952.63
2022-08-18T03:11:54.626Z,100950.66
2022-08-18T03:14:21.811Z,100942.75
2022-08-18T03:16:53.689Z,100942.75
2022-08-18T03:19:26.556Z,100938.00
2022-08-18T03:21:55.040Z,100951.81
2022-08-18T03:24:26.627Z,100959.31
2022-08-18T03:26:55.735Z,100953.00
2022-08-18T03:29:26.536Z,100958.13
2022-08-18T03:31:56.209Z,100951.03
2022-08-18T03:34:22.866Z,100946.28
2022-08-18T03:36:51.228Z,100950.63
2022-08-18T03:39:19.174Z,100957.75
2022-08-18T03:41:59.721Z,100954.19
2022-08-18T03:44:30.903Z,100951.81
2022-08-18T03:46:58.348Z,100950.66
2022-08-18T03:49:26.843Z,100951.06
2022-08-18T03:51:53.733Z,100947.13
2022-08-18T03:54:20.510Z,100956.63
2022-08-18T03:56:49.375Z,100956.19
2022-08-18T03:59:23.584Z,100953.84
2022-08-18T04:01:51.890Z,100945.56
2022-08-18T04:04:22.629Z,100941.59
2022-08-18T04:06:54.289Z,100945.94
2022-08-18T04:09:23.066Z,100947.88
2022-08-18T04:11:49.999Z,100948.28
2022-08-18T04:14:18.963Z,100943.53
2022-08-18T04:16:46.128Z,100941.16
2022-08-18T04:19:13.825Z,100942.75
2022-08-18T04:21:42.427Z,100942.75
2022-08-18T04:24:11.498Z,100952.59
2022-08-18T04:26:41.688Z,100962.50
2022-08-18T04:29:09.531Z,100971.16
2022-08-18T04:31:36.710Z,100966.44
2022-08-18T04:34:03.882Z,100968.41
2022-08-18T04:36:34.210Z,100965.28
2022-08-18T04:39:01.343Z,100976.69
2022-08-18T04:41:29.578Z,100960.53
2022-08-18T04:44:03.173Z,100965.66
2022-08-18T04:46:31.098Z,100964.13
2022-08-18T04:49:00.996Z,100960.91
2022-08-18T04:52:26.686Z,100969.63
2022-08-18T04:54:16.315Z,100980.28
2022-08-18T04:56:43.660Z,100987.00
2022-08-18T04:59:12.549Z,100994.09
2022-08-18T05:01:48.161Z,100991.75
2022-08-18T05:04:16.797Z,100990.94
2022-08-18T05:06:44.623Z,100991.34
2022-08-18T05:09:16.806Z,100992.53
2022-08-18T05:11:52.604Z,100986.16
2022-08-18T05:14:20.145Z,100996.44
2022-08-18T05:16:48.608Z,100995.22
2022-08-18T05:19:23.302Z,100990.13
2022-08-18T05:21:59.616Z,101004.78
2022-08-18T05:24:32.207Z,101001.22
2022-08-18T05:27:04.194Z,100999.63
2022-08-18T05:29:36.719Z,101005.56
2022-08-18T05:32:09.423Z,101000.81
2022-08-18T05:34:36.215Z,101005.16
2022-08-18T05:37:35.600Z,101002.78
2022-08-18T05:40:10.825Z,100995.28
2022-08-18T05:42:39.506Z,100994.88
2022-08-18T05:45:13.609Z,101000.03
2022-08-18T05:47:40.338Z,101002.00
2022-08-18T05:50:17.303Z,101002.00
2022-08-18T05:52:51.000Z,100998.06
2022-08-18T05:55:58.240Z,101012.25
2022-08-18T05:58:33.219Z,101010.69
2022-08-18T06:01:32.075Z,101007.47
2022-08-18T06:04:06.737Z,100999.19
2022-08-18T06:06:34.151Z,101005.44
2022-08-18T06:09:18.187Z,101004.22
2022-08-18T06:11:45.681Z,101019.31
2022-08-18T06:14:13.546Z,101016.94
2022-08-18T06:16:40.146Z,101012.22
2022-08-18T06:19:16.041Z,101010.28
2022-08-18T06:22:01.325Z,101016.22
2022-08-18T06:24:46.875Z,101018.53
2022-08-18T06:27:26.098Z,101017.41
2022-08-18T06:30:13.085Z,101013.44
2022-08-18T06:33:02.387Z,101022.13
2022-08-18T06:35:48.496Z,101015.81
2022-08-18T06:38:36.694Z,101016.63
2022-08-18T06:41:41.721Z,101015.81
2022-08-18T06:44:48.948Z,101024.09
2022-08-18T06:47:28.727Z,101026.06
2022-08-18T06:50:21.664Z,101022.16
2022-08-18T06:53:07.964Z,101026.06
2022-08-18T06:55:54.604Z,101024.91
2022-08-18T06:58:30.640Z,101020.16
2022-08-18T07:01:05.506Z,101018.19
2022-08-18T07:03:46.699Z,101027.25
2022-08-18T07:06:21.295Z,101029.22
2022-08-18T07:08:53.786Z,101037.13
2022-08-18T07:11:28.137Z,101030.81
2022-08-18T07:14:14.941Z,101035.94
2022-08-18T07:16:59.551Z,101034.34
2022-08-18T07:19:30.065Z,101037.50
2022-08-18T07:22:17.019Z,101035.16
2022-08-18T07:24:46.538Z,101035.13
2022-08-18T07:27:19.729Z,101040.25
2022-08-18T07:30:06.074Z,101045.41
2022-08-18T07:32:43.082Z,101032.00
2022-08-18T07:35:13.633Z,101029.63
2022-08-18T07:37:47.544Z,101026.84
2022-08-18T07:40:24.328Z,101018.91
2022-08-18T07:43:01.093Z,101030.94
2022-08-18T07:45:44.837Z,101040.22
2022-08-18T07:48:39.921Z,101030.31
2022-08-18T07:51:09.791Z,101029.31
2022-08-18T07:53:56.312Z,101032.25
2022-08-18T07:56:32.890Z,101031.38
2022-08-18T07:59:20.416Z,101027.81
2022-08-18T08:02:11.426Z,101023.25
2022-08-18T08:05:05.005Z,101026.66
2022-08-18T08:07:55.536Z,101030.72
2022-08-18T08:10:25.681Z,101028.63
2022-08-18T08:13:36.956Z,101033.09
2022-08-18T08:16:05.368Z,101029.50
2022-08-18T08:18:44.346Z,101038.81
2022-08-18T08:21:15.585Z,101029.06
2022-08-18T08:23:57.511Z,101035.88
2022-08-18T08:26:32.314Z,101030.31
2022-08-18T08:29:06.892Z,101042.81
2022-08-18T08:31:45.995Z,101043.28
2022-08-18T08:34:18.858Z,101035.09
2022-08-18T08:36:48.008Z,101037.38
2022-08-18T08:39:40.785Z,101037.31
2022-08-18T08:42:30.658Z,101037.63
2022-08-18T08:45:07.432Z,101042.78
2022-08-18T08:47:43.224Z,101036.34
2022-08-18T08:50:19.995Z,101034.53
2022-08-18T08:52:56.728Z,101034.28
2022-08-18T08:55:27.491Z,101025.63
2022-08-18T08:58:01.258Z,101038.63
2022-08-18T09:00:28.538Z,101043.13
2022-08-18T09:03:06.945Z,101045.59
2022-08-18T09:05:45.190Z,101038.09
2022-08-18T09:08:24.098Z,101036.81
2022-08-18T09:11:32.705Z,101034.28
2022-08-18T09:14:14.373Z,101032.16
2022-08-18T09:17:04.653Z,101032.53
2022-08-18T09:19:52.268Z,101033.16
2022-08-18T09:22:25.065Z,101032.75
2022-08-18T09:24:55.023Z,101023.78
2022-08-18T09:27:48.462Z,101024.47
2022-08-18T09:30:55.158Z,101031.84
2022-08-18T09:33:40.681Z,101038.81
2022-08-18T09:36:49.522Z,101041.22
2022-08-18T09:39:54.374Z,101042.63
2022-08-18T09:42:48.329Z,101035.63
2022-08-18T09:45:34.305Z,101041.34
2022-08-18T09:48:20.699Z,101033.88
2022-08-18T09:54:09.920Z,101036.41
2022-08-18T09:56:55.734Z,101038.78
2022-08-18T09:59:35.420Z,101033.53
2022-08-18T10:02:20.050Z,101033.47
2022-08-18T10:05:20.902Z,101025.84
2022-08-18T10:07:50.420Z,101022.69
2022-08-18T10:11:09.270Z,101017.50
2022-08-18T10:13:49.744Z,101017.66
2022-08-18T10:19:39.592Z,101011.91
2022-08-18T10:22:09.372Z,101010.22
2022-08-18T10:24:53.293Z,101012.41
2022-08-18T10:27:41.991Z,101006.44
2022-08-18T10:30:36.486Z,101004.03
2022-08-18T10:34:00.819Z,101005.59
2022-08-18T10:36:36.177Z,101001.38
2022-08-18T10:39:07.890Z,101007.03
2022-08-18T10:41:37.452Z,100998.81
2022-08-18T10:44:27.636Z,101001.28
2022-08-18T10:46:56.397Z,101009.75
2022-08-18T10:49:26.238Z,101006.34
2022-08-18T10:52:28.219Z,101005.19
2022-08-18T10:55:56.538Z,100999.97
2022-08-18T10:58:41.748Z,101003.13
2022-08-18T11:02:02.537Z,100999.97
2022-08-18T11:04:41.690Z,101003.00
2022-08-18T11:10:57.712Z,100985.94
2022-08-18T11:13:12.605Z,100978.13
2022-08-18T11:16:15.485Z,100984.41
2022-08-18T11:21:42.547Z,100984.41
2022-08-18T11:24:11.875Z,100979.81
2022-08-18T11:26:52.392Z,100979.94
2022-08-18T11:29:36.551Z,100972.78
2022-08-18T11:32:06.075Z,100963.59
2022-08-18T11:34:45.533Z,100958.75
2022-08-18T11:37:49.468Z,100952.88
2022-08-18T11:41:02.356Z,100952.94
2022-08-18T11:43:24.883Z,100952.56
2022-08-18T11:45:59.230Z,100942.78
2022-08-18T11:48:39.035Z,100959.38
2022-08-18T11:51:17.481Z,100954.56
2022-08-18T11:54:23.198Z,100958.25
2022-08-18T11:56:50.432Z,100949.22
2022-08-18T11:59:53.287Z,100956.34
2022-08-18T12:02:20.668Z,100951.16
2022-08-18T12:04:54.454Z,100954.13
2022-08-18T12:07:57.899Z,100959.13
2022-08-18T12:10:30.772Z,100953.13
2022-08-18T12:13:01.424Z,100973.63
2022-08-18T12:15:46.295Z,100972.06
2022-08-18T12:18:26.181Z,100971.72
2022-08-18T12:20:59.453Z,100972.06
2022-08-18T12:23:38.527Z,100969.47
2022-08-18T12:26:06.382Z,100960.41
2022-08-18T12:28:53.199Z,100965.06
2022-08-18T12:31:20.212Z,100966.81
2022-08-18T12:34:00.081Z,100966.88
2022-08-18T12:36:29.881Z,100962.13
2022-08-18T12:38:57.258Z,100972.81
2022-08-18T12:41:24.653Z,100982.13
2022-08-18T12:43:58.783Z,100991.47
2022-08-18T12:46:26.384Z,100979.81
2022-08-18T12:48:53.674Z,100986.31
2022-08-18T12:54:10.533Z,100981.69
2022-08-18T12:56:40.394Z,100982.50
2022-08-18T12:59:08.265Z,100986.91
2022-08-18T13:01:36.744Z,100993.53
2022-08-18T13:06:59.919Z,100999.47
2022-08-18T13:09:35.305Z,100990.41
2022-08-18T13:12:17.608Z,100992.50
2022-08-18T13:14:45.369Z,100981.47
2022-08-18T13:17:29.627Z,100978.91
2022-08-18T13:20:09.583Z,100969.28
2022-08-18T13:22:40.279Z,100965.47
2022-08-18T13:25:10.626Z,100964.72
2022-08-18T13:27:38.345Z,100952.19
2022-08-18T13:30:30.131Z,100954.84
2022-08-18T13:33:02.746Z,100944.38
2022-08-18T13:35:38.122Z,100939.50
2022-08-18T13:38:18.832Z,100938.22
2022-08-18T13:40:53.151Z,100932.50
2022-08-18T13:43:26.055Z,100927.66
2022-08-18T13:45:56.056Z,100920.47
2022-08-18T13:48:25.865Z,100920.28
2022-08-18T13:50:58.432Z,100921.94
2022-08-18T13:53:31.714Z,100914.13
2022-08-18T13:55:59.285Z,100918.84
2022-08-18T13:58:28.104Z,100911.47
2022-08-18T14:01:42.419Z,100905.72
2022-08-18T14:03:55.534Z,100914.59
2022-08-18T14:06:23.926Z,100902.75
2022-08-18T14:08:52.584Z,100907.59
2022-08-18T14:11:23.778Z,100905.44
2022-08-18T14:13:53.086Z,100908.69
2022-08-18T14:16:21.169Z,100901.44
2022-08-18T14:19:10.135Z,100907.72
2022-08-18T14:22:01.407Z,100897.53
2022-08-18T14:24:49.759Z,100906.91
2022-08-18T14:27:24.508Z,100903.00
2022-08-18T14:29:55.219Z,100894.59
2022-08-18T14:32:29.419Z,100901.13
2022-08-18T14:35:00.753Z,100905.06
2022-08-18T14:37:46.154Z,100901.53
2022-08-18T14:40:16.463Z,100907.13
2022-08-18T14:42:54.841Z,100902.56
2022-08-18T14:45:31.706Z,100905.63
2022-08-18T14:48:07.454Z,100908.44
2022-08-18T14:50:38.163Z,100911.63
2022-08-18T14:53:06.290Z,100912.78
2022-08-18T14:55:34.164Z,100911.91
2022-08-18T14:58:01.349Z,100909.00
2022-08-18T15:00:30.198Z,100896.03
2022-08-18T15:02:59.443Z,100910.91
2022-08-18T15:05:27.593Z,100902.66
2022-08-18T15:07:56.297Z,100904.66
2022-08-18T15:10:28.007Z,100908.75
2022-08-18T15:12:57.782Z,100908.75
2022-08-18T15:15:25.613Z,100910.44
2022-08-18T15:17:53.313Z,100905.63
2022-08-18T15:20:23.835Z,100894.66
2022-08-18T15:23:09.229Z,100906.06
2022-08-18T15:25:46.393Z,100912.63
2022-08-18T15:28:23.746Z,100909.66
2022-08-18T15:31:16.507Z,100900.81
2022-08-18T15:33:39.620Z,100902.31
2022-08-18T15:36:09.782Z,100905.13
2022-08-18T15:38:37.178Z,100898.66
2022-08-18T15:41:09.266Z,100898.69
2022-08-18T15:43:46.019Z,100903.72
2022-08-18T15:46:16.749Z,100901.47
2022-08-18T15:48:44.012Z,100896.66
2022-08-18T15:51:12.167Z,100884.75
2022-08-18T15:53:40.077Z,100897.78
2022-08-18T15:56:16.435Z,100899.91
2022-08-18T15:58:48.696Z,100889.19
2022-08-18T16:01:30.570Z,100880.81
2022-08-18T16:04:05.578Z,100889.72
2022-08-18T16:06:33.380Z,100897.28
2022-08-18T16:09:03.818Z,100902.00
2022-08-18T16:11:30.965Z,100890.56
2022-08-18T16:14:01.080Z,100899.00
2022-08-18T16:16:29.633Z,100894.19
2022-08-18T16:19:06.861Z,100888.28
2022-08-18T16:21:34.083Z,100888.75
2022-08-18T16:24:00.784Z,100886.91
2022-08-18T16:26:27.702Z,100883.63
2022-08-18T16:28:54.434Z,100886.22
2022-08-18T16:31:26.617Z,100889.19
2022-08-18T16:33:55.289Z,100887.63
2022-08-18T16:36:25.760Z,100885.69
2022-08-18T16:38:53.981Z,100886.28
2022-08-18T16:41:26.861Z,100882.91
2022-08-18T16:43:53.639Z,100878.72
2022-08-18T16:46:25.280Z,100890.72
2022-08-18T16:48:53.457Z,100879.78
2022-08-18T16:51:22.038Z,100886.72
2022-08-18T16:53:52.195Z,100888.81
2022-08-18T16:56:22.869Z,100894.13
2022-08-18T16:59:08.154Z,100885.63
2022-08-18T17:01:54.352Z,100890.03
2022-08-18T17:04:24.049Z,100882.97
2022-08-18T17:06:51.051Z,100877.84
2022-08-18T17:09:19.396Z,100880.56
2022-08-18T17:11:48.105Z,100877.28
2022-08-18T17:14:23.777Z,100878.47
2022-08-18T17:16:54.487Z,100873.81
2022-08-18T17:19:23.329Z,100873.56
2022-08-18T17:21:50.541Z,100870.22
2022-08-18T17:24:18.638Z,100867.03
2022-08-18T17:27:12.001Z,100862.50
2022-08-18T17:30:18.216Z,100873.25
2022-08-18T17:32:49.965Z,100867.81
2022-08-18T17:35:35.289Z,100870.28
2022-08-18T17:38:18.831Z,100876.47
2022-08-18T17:40:50.598Z,100866.47
2022-08-18T17:43:20.143Z,100865.84
2022-08-18T17:46:12.687Z,100867.88
2022-08-18T17:49:03.414Z,100867.25
2022-08-18T17:51:43.485Z,100870.03
2022-08-18T17:54:23.604Z,100869.47
2022-08-18T17:56:55.257Z,100857.03
2022-08-18T17:59:45.807Z,100860.78
2022-08-18T18:02:29.316Z,100873.25
2022-08-18T18:04:59.693Z,100876.97
2022-08-18T18:07:29.526Z,100876.53
2022-08-18T18:10:01.506Z,100879.13
2022-08-18T18:12:31.395Z,100874.63
2022-08-18T18:15:00.498Z,100874.03
2022-08-18T18:17:37.821Z,100872.56
2022-08-18T18:20:29.726Z,100871.50
2022-08-18T18:23:15.905Z,100879.16
2022-08-18T18:25:43.467Z,100875.63
2022-08-18T18:28:26.248Z,100880.53
2022-08-18T18:30:54.098Z,100868.13
2022-08-18T18:33:22.683Z,100878.75
2022-08-18T18:35:59.226Z,100886.22
2022-08-18T18:38:35.211Z,100872.84
2022-08-18T18:41:06.960Z,100888.72
2022-08-18T18:43:34.391Z,100884.22
2022-08-18T18:46:23.075Z,100887.06
2022-08-18T18:49:05.018Z,100890.13
2022-08-18T18:51:43.840Z,100889.78
2022-08-18T18:54:49.619Z,100889.22
2022-08-18T18:57:40.058Z,100882.59
2022-08-18T19:00:19.698Z,100887.22
2022-08-18T19:03:16.906Z,100890.34
2022-08-18T19:05:49.846Z,100894.56
2022-08-18T19:08:22.062Z,100904.84
2022-08-18T19:11:00.316Z,100908.66
2022-08-18T19:13:35.141Z,100907.44
2022-08-18T19:16:23.749Z,100911.84
2022-08-18T19:18:59.798Z,100900.81
2022-08-18T19:22:03.855Z,100912.63
2022-08-18T19:24:30.044Z,100907.16
2022-08-18T19:26:58.570Z,100901.88
2022-08-18T19:29:36.359Z,100916.56
2022-08-18T19:32:27.100Z,100919.84
2022-08-18T19:34:55.800Z,100916.94
2022-08-18T19:37:44.772Z,100915.16
2022-08-18T19:40:19.844Z,100919.56
2022-08-18T19:43:26.579Z,100921.38
2022-08-18T19:46:00.528Z,100922.91
2022-08-18T19:48:39.320Z,100925.75
2022-08-18T19:51:16.187Z,100924.63
2022-08-18T19:53:52.454Z,100934.03
2022-08-18T19:57:03.515Z,100928.47
2022-08-18T19:59:36.318Z,100935.56
2022-08-18T20:02:25.341Z,100927.81
2022-08-18T20:05:08.495Z,100919.34
2022-08-18T20:08:05.046Z,100925.63
2022-08-18T20:11:02.363Z,100923.91
2022-08-18T20:13:36.715Z,100920.34
2022-08-18T20:16:13.565Z,100935.72
2022-08-18T20:18:42.753Z,100926.50
2022-08-18T20:21:48.421Z,100919.31
2022-08-18T20:24:30.735Z,100938.97
2022-08-18T20:27:14.992Z,100940.22
2022-08-18T20:29:43.656Z,100934.38
2022-08-18T20:32:34.588Z,100942.03
2022-08-18T20:35:24.860Z,100938.25
2022-08-18T20:37:51.937Z,100929.75
2022-08-18T20:40:45.122Z,100939.50
2022-08-18T20:43:35.965Z,100939.69
2022-08-18T20:46:26.687Z,100947.38
2022-08-18T20:49:50.458Z,100948.47
2022-08-18T20:52:48.970Z,100955.75
2022-08-18T20:55:30.641Z,100955.75
2022-08-18T20:58:05.514Z,100946.31
2022-08-18T21:00:36.430Z,100939.78
2022-08-18T21:03:08.734Z,100938.94
2022-08-18T21:05:37.369Z,100945.16
2022-08-18T21:08:13.644Z,100946.59
2022-08-18T21:10:50.580Z,100950.53
2022-08-18T21:13:31.510Z,100946.63
2022-08-18T21:15:58.536Z,100937.88
2022-08-18T21:18:26.920Z,100948.97
2022-08-18T21:20:56.188Z,100951.72
2022-08-18T21:23:30.631Z,100945.75
2022-08-18T21:26:06.763Z,100945.88
2022-08-18T21:28:36.699Z,100947.81
2022-08-18T21:31:29.018Z,100945.44
2022-08-18T21:34:16.021Z,100950.28
2022-08-18T21:36:53.726Z,100947.53
2022-08-18T21:39:21.110Z,100956.00
2022-08-18T21:41:54.479Z,100953.22
2022-08-18T21:44:41.868Z,100960.31
2022-08-18T21:47:15.562Z,100962.72
2022-08-18T21:50:17.997Z,100963.91
2022-08-18T21:53:11.369Z,100964.16
2022-08-18T21:55:42.796Z,100968.41
2022-08-18T21:58:16.725Z,100976.09
2022-08-18T22:01:06.107Z,100971.97
2022-08-18T22:03:37.493Z,100971.75
2022-08-18T22:06:13.164Z,100985.81
2022-08-18T22:08:50.084Z,100983.75
2022-08-18T22:12:00.661Z,100984.59
2022-08-18T22:14:54.857Z,100981.19
2022-08-18T22:17:25.567Z,100987.44
2022-08-18T22:19:53.271Z,100977.75
2022-08-18T22:22:40.557Z,100969.09
2022-08-18T22:25:08.434Z,100971.06
2022-08-18T22:27:35.509Z,100969.78
2022-08-18T22:30:04.287Z,100974.84
2022-08-18T22:32:38.165Z,100982.34
2022-08-18T22:35:06.999Z,100995.94
2022-08-18T22:37:40.284Z,100984.84
2022-08-18T22:40:11.410Z,100986.44
2022-08-18T22:42:39.000Z,100982.09
2022-08-18T22:45:09.895Z,100982.16
2022-08-18T22:47:43.157Z,100984.09
2022-08-18T22:50:12.842Z,100983.47
2022-08-18T22:52:43.534Z,100977.91
2022-08-18T22:55:13.641Z,100981.88
2022-08-18T22:57:42.068Z,100987.09
2022-08-18T23:00:17.321Z,100988.34
2022-08-18T23:02:45.088Z,100987.97
2022-08-18T23:05:11.919Z,100987.16
2022-08-18T23:07:38.821Z,100993.19
2022-08-18T23:10:08.151Z,100996.69
2022-08-18T23:12:40.392Z,100993.66
2022-08-18T23:15:11.436Z,100979.03
2022-08-18T23:17:39.486Z,100984.88
2022-08-18T23:20:11.711Z,100976.91
2022-08-18T23:22:40.098Z,100982.97
2022-08-18T23:25:09.394Z,100992.78
2022-08-18T23:27:36.677Z,100981.66
2022-08-18T23:30:04.899Z,100986.78
2022-08-18T23:32:32.031Z,100982.41
2022-08-18T23:34:59.436Z,100978.50
2022-08-18T23:37:26.545Z,100980.19
2022-08-18T23:39:53.259Z,100987.50
2022-08-18T23:42:23.005Z,100995.47
2022-08-18T23:44:50.087Z,100997.09
2022-08-18T23:47:19.560Z,101002.63
2022-08-18T23:49:46.802Z,100995.16
2022-08-18T23:52:13.470Z,101000.38
2022-08-18T23:54:40.206Z,100999.19
2022-08-18T23:57:06.920Z,101000.78
2022-08-18T23:59:33.692Z,101000.00
